Time;durP1;ratioP1;P1;durP2;ratioP2;P2;SDS_P1;SDS_P2;PMS_P1;PMS_P2;Temp;Humidity;BMP_temperature;BMP_pressure;BME280_temperature;BME280_humidity;BME280_pressure;Samples;Min_cycle;Max_cycle;Signal;HPM_P1;HPM_P2
2021/09/01 00:00:56;;;;;;;18.58;12.90;;;14.10;96.30;;;14.43;69.85;98449.41;4947385;29;20055;-38
2021/09/01 00:03:24;;;;;;;19.58;11.93;;;14.20;96.40;;;14.42;69.73;98447.72;4908784;29;1145609;-38
2021/09/01 00:05:52;;;;;;;20.45;12.88;;;14.10;96.10;;;14.37;69.75;98458.13;4948871;29;20253;-38
2021/09/01 00:08:20;;;;;;;21.10;12.15;;;14.00;95.90;;;14.29;69.84;98453.59;4948166;29;20059;-38
2021/09/01 00:10:48;;;;;;;19.73;12.10;;;13.90;96.40;;;14.29;69.83;98458.94;4948605;29;20063;-38
2021/09/01 00:13:16;;;;;;;21.27;12.73;;;13.90;96.30;;;14.24;69.91;98455.91;4948292;29;20047;-38
2021/09/01 00:15:44;;;;;;;19.42;12.30;;;13.90;96.50;;;14.23;70.05;98462.28;4948835;28;20069;-38
2021/09/01 00:18:13;;;;;;;24.50;11.73;;;13.90;96.70;;;14.24;69.99;98466.63;4949061;28;20059;-38
2021/09/01 00:20:41;;;;;;;18.50;12.52;;;13.90;96.50;;;14.20;70.10;98462.59;4947751;29;20047;-38
2021/09/01 00:23:14;;;;;;;21.63;13.32;;;13.90;96.60;;;14.22;69.94;98465.13;4948154;28;20055;-38
2021/09/01 00:25:43;;;;;;;17.98;12.25;;;13.90;96.60;;;14.21;69.94;98456.25;4948741;28;20085;-38
2021/09/01 00:28:11;;;;;;;19.58;12.02;;;13.90;96.10;;;14.17;69.88;98458.41;4947124;28;20077;-38
2021/09/01 00:30:39;;;;;;;22.02;13.32;;;13.80;96.40;;;14.17;70.16;98466.47;4948532;29;20342;-38
2021/09/01 00:33:07;;;;;;;21.65;13.60;;;13.80;96.70;;;14.13;70.07;98461.56;4948033;29;20058;-38
2021/09/01 00:35:35;;;;;;;18.40;11.98;;;13.80;96.70;;;14.08;70.19;98455.88;4949361;29;20051;-38
2021/09/01 00:38:03;;;;;;;22.67;12.85;;;13.70;96.90;;;14.06;70.26;98458.72;4946746;28;20391;-38
2021/09/01 00:40:31;;;;;;;18.75;11.95;;;13.70;97.00;;;14.03;70.27;98463.56;4949867;29;20051;-38
2021/09/01 00:42:59;;;;;;;17.98;11.95;;;13.70;97.10;;;14.02;70.32;98469.94;4948209;29;20055;-38
2021/09/01 00:45:27;;;;;;;19.80;12.85;;;13.60;97.10;;;14.00;70.32;98456.72;4946407;28;20082;-38
2021/09/01 00:47:55;;;;;;;18.27;12.45;;;13.60;97.00;;;13.99;70.47;98461.19;4947821;29;20254;-38
2021/09/01 00:50:25;;;;;;;16.20;11.70;;;13.70;97.10;;;13.96;70.28;98466.91;4947604;28;20057;-38
2021/09/01 00:52:53;;;;;;;20.60;13.68;;;13.60;96.80;;;13.95;70.28;98462.53;4947425;29;20059;-38
2021/09/01 00:55:23;;;;;;;16.42;11.55;;;13.60;97.10;;;13.97;70.27;98462.38;4948617;29;20059;-38
2021/09/01 00:57:52;;;;;;;18.67;11.63;;;13.60;97.10;;;13.93;70.34;98455.66;4947571;28;20395;-38
2021/09/01 01:00:50;;;;;;;18.98;11.82;;;13.60;96.90;;;13.89;70.35;98465.88;4946906;29;20047;-38
2021/09/01 01:03:19;;;;;;;21.30;12.85;;;13.50;97.00;;;13.87;70.32;98459.84;4948990;29;20047;-38
2021/09/01 01:05:47;;;;;;;16.98;11.90;;;13.50;97.20;;;13.85;70.41;98452.97;4948011;29;20054;-38
2021/09/01 01:08:15;;;;;;;15.20;11.00;;;13.50;97.30;;;13.84;70.58;98457.50;4947674;28;20057;-38
2021/09/01 01:10:44;;;;;;;15.75;11.50;;;13.50;97.30;;;13.83;70.55;98452.31;4946721;28;20359;-38
2021/09/01 01:13:16;;;;;;;14.43;10.15;;;13.50;97.50;;;13.84;70.59;98454.81;4946973;28;20069;-38
2021/09/01 01:15:44;;;;;;;16.55;10.60;;;13.50;97.60;;;13.79;70.69;98447.25;4948610;29;20426;-38
2021/09/01 01:18:12;;;;;;;16.45;9.45;;;13.50;97.40;;;13.79;70.74;98449.09;4945879;28;20065;-38
2021/09/01 01:20:40;;;;;;;14.15;10.65;;;13.50;97.50;;;13.81;70.79;98446.28;4947243;29;20249;-38
2021/09/01 01:23:09;;;;;;;15.82;10.32;;;13.50;97.60;;;13.82;70.70;98451.44;4946524;29;20342;-38
2021/09/01 01:25:39;;;;;;;15.95;10.63;;;13.50;97.30;;;13.80;70.47;98450.78;4948180;29;20055;-38
2021/09/01 01:28:09;;;;;;;18.45;10.77;;;13.50;97.10;;;13.79;70.63;98449.94;4947492;29;20073;-38
2021/09/01 01:30:38;;;;;;;16.90;10.88;;;13.50;97.30;;;13.78;70.63;98450.09;4948278;28;20055;-38
2021/09/01 01:33:09;;;;;;;15.07;10.52;;;13.50;97.30;;;13.74;70.69;98449.56;4947120;28;20093;-38
2021/09/01 01:35:43;;;;;;;20.27;10.45;;;13.40;97.20;;;13.72;70.84;98446.22;4947561;29;20047;-38
2021/09/01 01:38:15;;;;;;;16.35;11.18;;;13.40;97.60;;;13.70;70.81;98447.41;4947348;29;20058;-38
2021/09/01 01:40:44;;;;;;;17.25;11.38;;;13.40;97.80;;;13.70;70.87;98458.94;4946610;29;20308;-38
2021/09/01 01:43:13;;;;;;;14.90;10.27;;;13.40;97.70;;;13.71;70.81;98454.44;4946273;28;20054;-38
2021/09/01 01:45:44;;;;;;;14.75;10.25;;;13.40;97.50;;;13.67;70.79;98453.09;4948214;28;20055;-38
2021/09/01 01:48:15;;;;;;;16.90;9.07;;;13.30;97.50;;;13.63;70.85;98449.88;4947360;29;20065;-38
2021/09/01 01:50:44;;;;;;;18.17;10.05;;;13.20;97.50;;;13.60;70.83;98450.19;4947891;29;20059;-38
2021/09/01 01:53:12;;;;;;;13.57;9.25;;;13.30;97.60;;;13.57;70.96;98458.53;4946445;28;20067;-38
2021/09/01 01:55:40;;;;;;;13.00;8.50;;;13.20;97.70;;;13.59;70.80;98456.56;4946375;29;20059;-38
2021/09/01 01:58:08;;;;;;;15.35;10.30;;;13.30;97.60;;;13.58;70.79;98460.22;4946833;28;20066;-37
2021/09/01 02:00:36;;;;;;;14.38;10.00;;;13.20;97.40;;;13.56;70.75;98454.19;4946985;29;20055;-38
2021/09/01 02:03:06;;;;;;;12.65;9.07;;;13.20;97.40;;;13.55;70.83;98460.53;4946929;29;20055;-38
2021/09/01 02:05:34;;;;;;;13.25;8.88;;;13.20;97.50;;;13.53;70.76;98457.19;4947167;29;20081;-38
2021/09/01 02:08:02;;;;;;;14.23;8.10;;;13.20;97.20;;;13.51;70.67;98451.16;4947853;29;20352;-37
2021/09/01 02:10:30;;;;;;;11.25;8.70;;;13.20;97.60;;;13.50;70.89;98455.69;4945785;29;20241;-38
2021/09/01 02:12:58;;;;;;;13.50;8.23;;;13.20;97.60;;;13.51;70.89;98456.50;4946599;28;20069;-38
2021/09/01 02:15:26;;;;;;;13.52;9.18;;;13.20;97.50;;;13.49;70.68;98458.50;4946199;28;20067;-38
2021/09/01 02:17:54;;;;;;;12.05;9.05;;;13.20;97.20;;;13.48;70.70;98446.16;4946323;28;20071;-38
2021/09/01 02:20:22;;;;;;;12.80;8.68;;;13.10;97.30;;;13.47;70.71;98455.97;4945717;29;20047;-38
2021/09/01 02:22:50;;;;;;;13.68;9.27;;;13.20;97.20;;;13.46;70.73;98456.16;4946089;29;20043;-37
2021/09/01 02:25:18;;;;;;;10.10;7.68;;;13.10;97.10;;;13.42;70.67;98454.81;4948101;28;20063;-38
2021/09/01 02:27:46;;;;;;;13.60;9.00;;;13.10;97.30;;;13.41;70.58;98456.63;4946859;29;20835;-38
2021/09/01 02:30:14;;;;;;;18.38;9.05;;;13.10;97.10;;;13.38;70.77;98459.63;4948014;28;20502;-38
2021/09/01 02:32:43;;;;;;;14.25;9.88;;;13.00;97.30;;;13.36;70.92;98458.97;4946298;28;20055;-38
2021/09/01 02:35:11;;;;;;;14.52;8.85;;;13.00;97.50;;;13.36;70.84;98461.63;4946190;29;20055;-38
2021/09/01 02:37:39;;;;;;;12.82;9.40;;;13.00;97.50;;;13.36;71.09;98466.97;4946030;29;20081;-38
2021/09/01 02:40:07;;;;;;;14.85;9.07;;;13.00;97.50;;;13.34;70.67;98455.59;4946288;29;20510;-38
2021/09/01 02:42:35;;;;;;;11.18;8.88;;;13.00;97.30;;;13.32;70.99;98458.44;4947225;29;20434;-38
2021/09/01 02:45:03;;;;;;;13.20;8.52;;;13.00;97.40;;;13.29;70.84;98460.56;4946690;28;20063;-37
2021/09/01 02:47:32;;;;;;;14.23;9.43;;;12.90;97.40;;;13.27;70.91;98462.53;4946078;29;20059;-37
2021/09/01 02:50:01;;;;;;;11.68;8.68;;;12.90;97.70;;;13.25;71.02;98461.88;4945506;29;20055;-37
2021/09/01 02:52:29;;;;;;;13.25;9.38;;;12.90;97.70;;;13.22;71.05;98464.84;4947477;28;20260;-37
2021/09/01 02:54:57;;;;;;;13.23;9.45;;;12.90;97.70;;;13.20;71.05;98471.22;4947152;29;20266;-37
2021/09/01 02:57:26;;;;;;;13.32;8.82;;;12.90;97.80;;;13.20;70.98;98470.34;4947019;29;20047;-37
2021/09/01 02:59:54;;;;;;;14.02;9.55;;;12.80;97.60;;;13.18;71.11;98473.19;4947018;28;20395;-37
2021/09/01 03:02:21;;;;;;;17.70;9.50;;;12.90;97.50;;;13.17;70.91;98468.84;4946358;29;20743;-37
2021/09/01 03:04:49;;;;;;;12.48;8.90;;;12.90;97.30;;;13.18;70.86;98478.53;4947059;29;20046;-37
2021/09/01 03:07:17;;;;;;;13.27;9.23;;;12.90;97.20;;;13.20;70.81;98478.38;4946659;29;20051;-38
2021/09/01 03:09:45;;;;;;;14.68;10.02;;;12.90;97.00;;;13.16;71.09;98475.19;4948210;28;20054;-37
2021/09/01 03:12:13;;;;;;;16.27;9.38;;;12.90;97.20;;;13.15;70.94;98472.66;4949557;29;20051;-37
2021/09/01 03:14:41;;;;;;;13.95;9.75;;;12.90;97.50;;;13.13;70.88;98472.00;4950116;28;20067;-37
2021/09/01 03:17:09;;;;;;;15.55;10.00;;;12.80;97.30;;;13.12;70.91;98470.28;4950423;29;20244;-37
2021/09/01 03:19:37;;;;;;;14.75;9.30;;;12.80;97.30;;;13.12;70.94;98468.47;4950274;29;20059;-38
2021/09/01 03:22:05;;;;;;;14.63;10.30;;;12.80;97.10;;;13.10;70.73;98466.94;4949129;29;20387;-37
2021/09/01 03:24:33;;;;;;;14.23;10.15;;;12.80;97.10;;;13.08;70.97;98472.44;4949747;29;20370;-37
2021/09/01 03:27:00;;;;;;;14.90;10.73;;;12.70;97.10;;;13.07;70.89;98477.97;4948566;28;20245;-37
2021/09/01 03:29:29;;;;;;;15.18;9.52;;;12.70;97.00;;;13.03;70.76;98471.22;4948384;28;20070;-37
2021/09/01 03:31:57;;;;;;;14.32;10.05;;;12.70;97.20;;;12.99;70.79;98479.59;4949086;29;20059;-38
2021/09/01 03:34:25;;;;;;;13.63;9.88;;;12.70;97.30;;;12.98;70.96;98475.22;4950120;29;20234;-37
2021/09/01 03:36:53;;;;;;;13.68;9.68;;;12.60;97.10;;;12.98;71.10;98480.56;4949673;29;20257;-38
2021/09/01 03:39:21;;;;;;;14.20;9.90;;;12.60;97.30;;;12.94;70.99;98473.84;4948838;29;20053;-37
2021/09/01 03:41:48;;;;;;;13.95;9.45;;;12.60;97.40;;;12.92;70.97;98473.16;4950699;28;20069;-40
2021/09/01 03:44:16;;;;;;;14.00;10.45;;;12.60;97.30;;;12.91;70.77;98476.84;4948438;29;20053;-38
2021/09/01 03:46:44;;;;;;;14.93;11.18;;;12.50;97.30;;;12.91;70.82;98482.19;4947836;29;20226;-38
2021/09/01 03:49:17;;;;;;;15.25;9.60;;;12.50;97.30;;;12.92;71.09;98478.53;4947796;28;20059;-38
2021/09/01 03:51:46;;;;;;;13.55;9.30;;;12.60;97.10;;;12.92;70.87;98483.88;4948656;29;20047;-38
2021/09/01 03:54:15;;;;;;;14.80;10.25;;;12.60;96.80;;;12.88;70.88;98485.19;4949911;28;20065;-38
2021/09/01 03:56:43;;;;;;;16.65;11.60;;;12.50;96.90;;;12.87;70.95;98480.84;4948082;29;20051;-38
2021/09/01 03:59:11;;;;;;;20.40;10.18;;;12.50;98.20;;;12.86;70.74;98489.84;4948628;29;20043;-38
2021/09/01 04:01:42;;;;;;;15.63;10.65;;;12.50;97.30;;;12.85;71.02;98489.97;4948056;29;20077;-38
2021/09/01 04:04:10;;;;;;;14.68;10.73;;;12.50;97.10;;;12.86;71.00;98481.81;4948563;29;20242;-38
2021/09/01 04:06:38;;;;;;;14.43;10.35;;;12.60;96.90;;;12.87;70.91;98486.19;4947928;29;20055;-38
2021/09/01 04:09:06;;;;;;;16.02;11.35;;;12.60;96.80;;;12.89;70.73;98480.66;4949175;29;20349;-37
2021/09/01 04:11:34;;;;;;;13.90;9.23;;;12.60;96.60;;;12.90;70.86;98485.84;4948837;29;20077;-37
2021/09/01 04:14:02;;;;;;;13.05;9.98;;;12.70;96.30;;;12.88;70.66;98485.19;4948968;29;20063;-37
2021/09/01 04:16:30;;;;;;;13.52;10.02;;;12.60;96.00;;;12.86;70.64;98484.50;4949846;28;20251;-38
2021/09/01 04:18:58;;;;;;;17.13;12.18;;;12.60;96.20;;;12.82;70.45;98490.31;4946457;28;20082;-38
2021/09/01 04:21:26;;;;;;;15.10;10.15;;;12.50;96.40;;;12.79;70.57;98489.63;4947296;28;20063;-38
2021/09/01 04:23:54;;;;;;;18.13;11.80;;;12.50;96.10;;;12.77;70.62;98499.59;4949381;29;20047;-38
2021/09/01 04:26:22;;;;;;;18.98;12.10;;;12.50;96.20;;;12.74;70.39;98491.09;4951240;28;20059;-38
2021/09/01 04:28:50;;;;;;;16.48;11.00;;;12.40;96.20;;;12.72;70.56;98495.75;4949076;28;20059;-38
2021/09/01 04:31:18;;;;;;;19.92;12.70;;;12.40;96.50;;;12.71;70.47;98499.41;4948178;28;20369;-38
2021/09/01 04:33:46;;;;;;;19.13;12.60;;;12.40;96.30;;;12.70;70.63;98492.38;4949173;29;20042;-38
2021/09/01 04:36:14;;;;;;;17.77;12.88;;;12.40;96.40;;;12.69;70.54;98493.38;4949530;29;20469;-38
2021/09/01 04:38:42;;;;;;;19.45;12.00;;;12.40;96.50;;;12.66;70.80;98502.53;4948456;29;20437;-37
2021/09/01 04:41:09;;;;;;;19.60;12.80;;;12.30;96.50;;;12.66;70.71;98493.66;4947055;29;20077;-38
2021/09/01 04:43:37;;;;;;;21.67;12.90;;;12.30;96.80;;;12.63;70.79;98494.81;4947936;29;20493;-37
2021/09/01 04:46:05;;;;;;;19.65;12.27;;;12.30;97.00;;;12.61;70.88;98486.94;4946990;28;20055;-37
2021/09/01 04:48:33;;;;;;;21.15;13.82;;;12.30;97.20;;;12.61;70.89;98486.13;4946569;29;20065;-38
2021/09/01 04:51:01;;;;;;;22.98;13.85;;;12.30;97.40;;;12.62;71.03;98490.47;4947660;28;20069;-38
2021/09/01 04:53:29;;;;;;;19.48;12.98;;;12.30;97.20;;;12.64;70.73;98492.97;4948241;29;20055;-38
2021/09/01 04:55:57;;;;;;;19.45;12.85;;;12.40;97.00;;;12.64;71.05;98496.50;4947637;29;20047;-38
2021/09/01 04:58:24;;;;;;;21.15;14.05;;;12.40;97.00;;;12.65;71.00;98502.69;4948757;28;20059;-38
2021/09/01 05:00:54;;;;;;;19.67;12.98;;;12.40;96.60;;;12.64;71.03;98503.66;4946354;29;20045;-38
2021/09/01 05:03:22;;;;;;;20.00;12.63;;;12.30;96.90;;;12.61;71.26;98513.66;4948529;29;20260;-38
2021/09/01 05:05:50;;;;;;;22.08;14.25;;;12.30;97.00;;;12.61;70.86;98502.97;4946731;29;20043;-38
2021/09/01 05:08:18;;;;;;;19.63;12.45;;;12.30;97.00;;;12.61;71.10;98505.66;4947346;29;20057;-38
2021/09/01 05:10:45;;;;;;;22.63;13.10;;;12.30;97.10;;;12.64;70.82;98507.19;4947136;28;20365;-38
2021/09/01 05:13:13;;;;;;;18.88;13.40;;;12.40;97.00;;;12.66;71.07;98504.34;4947224;28;20061;-38
2021/09/01 05:15:41;;;;;;;19.58;11.80;;;12.40;96.80;;;12.68;70.91;98500.56;4948419;29;20352;-38
2021/09/01 05:18:09;;;;;;;21.80;14.07;;;12.50;96.70;;;12.71;71.04;98510.09;4946433;29;20063;-41
2021/09/01 05:20:38;;;;;;;18.17;12.00;;;12.50;96.50;;;12.74;70.79;98505.28;4946789;29;20051;-39
2021/09/01 05:23:08;;;;;;;21.30;14.00;;;12.60;96.30;;;12.74;71.11;98505.28;4948031;28;20256;-38
2021/09/01 05:25:58;;;;;;;18.35;12.43;;;12.60;96.30;;;12.77;70.92;98510.28;4947621;29;20051;-38
2021/09/01 05:28:29;;;;;;;22.65;12.18;;;12.60;96.20;;;12.80;70.73;98514.50;4948158;28;20081;-38
2021/09/01 05:31:03;;;;;;;36.50;15.70;;;12.60;96.20;;;12.81;71.15;98516.16;4947128;28;20057;-38
2021/09/01 05:33:37;;;;;;;23.90;13.13;;;12.60;96.50;;;12.85;71.27;98520.22;4947707;28;20053;-38
2021/09/01 05:36:06;;;;;;;23.58;14.50;;;12.70;96.80;;;12.87;71.28;98518.25;4947412;29;20051;-38
2021/09/01 05:38:34;;;;;;;22.25;15.02;;;12.70;97.00;;;12.90;71.15;98517.91;4947144;29;20626;-38
2021/09/01 05:41:03;;;;;;;23.15;14.70;;;12.80;97.20;;;12.95;71.31;98520.13;4946569;29;20062;-38
2021/09/01 05:43:31;;;;;;;26.13;16.25;;;12.80;97.50;;;12.99;71.57;98518.84;4947002;28;20071;-39
2021/09/01 05:45:59;;;;;;;28.65;16.50;;;12.90;97.70;;;13.02;71.72;98512.34;4947109;29;20349;-38
2021/09/01 05:48:28;;;;;;;29.00;18.92;;;12.90;98.00;;;13.04;71.62;98518.38;4946812;29;20249;-38
2021/09/01 05:50:56;;;;;;;30.05;17.45;;;12.90;98.30;;;13.07;71.96;98523.41;4946468;29;20357;-38
2021/09/01 05:53:24;;;;;;;36.28;19.05;;;13.00;98.70;;;13.11;71.94;98528.28;4945158;29;20350;-38
2021/09/01 05:55:54;;;;;;;28.55;16.63;;;13.00;98.80;;;13.14;72.14;98527.13;4947328;28;20070;-38
2021/09/01 05:58:22;;;;;;;30.98;18.92;;;13.00;98.80;;;13.17;71.96;98529.50;4946870;29;20069;-38
2021/09/01 06:00:57;;;;;;;32.00;18.42;;;13.10;98.90;;;13.20;72.12;98531.84;4949051;29;20055;-38
2021/09/01 06:03:37;;;;;;;31.02;18.50;;;13.10;99.20;;;13.25;72.13;98526.88;4946377;28;20059;-38
2021/09/01 06:06:05;;;;;;;27.90;16.83;;;13.20;99.70;;;13.29;72.58;98536.25;4947136;29;20050;-38
2021/09/01 06:08:35;;;;;;;28.05;18.65;;;13.20;99.50;;;13.32;72.50;98537.84;4946997;29;20057;-38
2021/09/01 06:11:08;;;;;;;33.95;18.58;;;13.20;99.70;;;13.35;72.44;98541.00;4945473;29;20047;-38
2021/09/01 06:13:36;;;;;;;34.03;19.60;;;13.30;99.90;;;13.38;72.54;98542.53;4947342;28;20061;-38
2021/09/01 06:16:04;;;;;;;32.00;19.15;;;13.30;99.90;;;13.43;72.79;98537.53;4946016;29;20442;-38
2021/09/01 06:18:32;;;;;;;31.70;18.98;;;13.30;99.90;;;13.45;72.71;98537.38;4945888;28;20090;-39
2021/09/01 06:21:00;;;;;;;34.85;20.50;;;13.40;99.90;;;13.48;72.92;98542.44;4946043;29;20061;-38
2021/09/01 06:23:28;;;;;;;37.92;21.92;;;13.40;99.90;;;13.52;72.91;98541.13;4946658;28;20061;-38
2021/09/01 06:25:56;;;;;;;31.17;20.02;;;13.50;99.90;;;13.55;73.08;98538.97;4948098;28;20051;-38
2021/09/01 06:28:24;;;;;;;34.90;19.75;;;13.50;99.90;;;13.60;73.03;98541.16;4950816;28;20050;-39
2021/09/01 06:30:51;;;;;;;28.23;18.67;;;13.50;99.90;;;13.63;73.24;98538.19;4965487;28;20050;-39
2021/09/01 06:33:19;;;;;;;26.45;17.23;;;13.60;99.90;;;13.67;73.04;98538.72;4964892;28;20371;-39
2021/09/01 06:35:50;;;;;;;29.90;18.67;;;13.60;99.90;;;13.71;73.27;98532.03;4966264;28;20051;-39
2021/09/01 06:38:18;;;;;;;26.95;17.50;;;13.70;99.90;;;13.74;73.21;98540.56;4966840;28;20058;-39
2021/09/01 06:40:46;;;;;;;25.60;17.38;;;13.70;99.90;;;13.75;72.98;98539.56;4963037;28;20057;-38
2021/09/01 06:43:14;;;;;;;24.65;15.82;;;13.70;99.90;;;13.78;73.40;98544.63;4965638;28;20379;-38
2021/09/01 06:45:42;;;;;;;21.92;16.20;;;13.70;99.90;;;13.81;73.38;98545.31;4967319;28;20047;-38
2021/09/01 06:48:11;;;;;;;24.83;16.30;;;13.80;99.90;;;13.83;73.54;98546.81;4968359;28;20244;-38
2021/09/01 06:50:38;;;;;;;20.90;15.32;;;13.80;99.90;;;13.87;73.42;98544.66;4969133;28;20055;-38
2021/09/01 06:53:07;;;;;;;22.67;15.27;;;13.80;99.90;;;13.91;73.52;98551.38;4969064;28;20058;-38
2021/09/01 06:55:35;;;;;;;23.55;15.63;;;13.90;99.90;;;13.94;73.63;98551.88;4970211;28;20222;-38
2021/09/01 06:58:15;;;;;;;20.88;14.68;;;13.90;99.90;;;13.97;73.49;98564.09;4970244;28;20059;-39
2021/09/01 07:00:43;;;;;;;22.02;15.00;;;13.90;99.90;;;13.99;73.77;98562.94;4968888;28;20077;-39
2021/09/01 07:03:11;;;;;;;21.65;15.15;;;13.90;99.90;;;14.02;73.80;98558.28;4969953;28;20051;-38
2021/09/01 07:05:40;;;;;;;24.67;16.40;;;14.00;99.90;;;14.04;73.83;98562.47;4968818;28;20072;-38
2021/09/01 07:08:14;;;;;;;29.13;16.88;;;14.00;99.90;;;14.05;73.76;98564.13;4968498;28;20603;-38
2021/09/01 07:10:43;;;;;;;28.90;17.70;;;14.00;99.90;;;14.07;74.04;98555.94;4970336;28;20356;-38
2021/09/01 07:13:12;;;;;;;25.05;17.10;;;14.00;99.90;;;14.08;74.08;98561.13;4968975;28;20059;-38
2021/09/01 07:15:41;;;;;;;29.15;17.55;;;14.10;99.90;;;14.13;74.27;98563.31;4969255;28;20062;-38
2021/09/01 07:18:09;;;;;;;27.67;17.38;;;14.10;99.90;;;14.17;74.48;98565.53;4969698;28;20364;-38
2021/09/01 07:20:39;;;;;;;27.35;17.77;;;14.20;99.90;;;14.23;74.40;98569.41;4967974;28;20059;-39
2021/09/01 07:23:07;;;;;;;26.80;17.95;;;14.30;99.90;;;14.29;74.48;98575.97;4968276;28;20053;-38
2021/09/01 07:25:36;;;;;;;29.25;17.88;;;14.40;99.90;;;14.34;74.44;98577.13;4968694;28;20054;-39
2021/09/01 07:28:05;;;;;;;35.28;18.90;;;14.50;99.90;;;14.41;74.33;98579.19;4968095;28;20065;-39
2021/09/01 07:30:33;;;;;;;28.83;18.20;;;14.50;99.90;;;14.46;74.50;98576.81;4968155;28;20335;-39
2021/09/01 07:33:01;;;;;;;29.23;19.23;;;14.50;99.90;;;14.51;74.39;98569.97;4966938;28;20062;-39
2021/09/01 07:35:29;;;;;;;31.50;20.48;;;14.60;99.90;;;14.55;74.43;98576.69;4969599;28;20067;-39
2021/09/01 07:37:57;;;;;;;35.17;20.08;;;14.60;99.90;;;14.59;74.44;98579.06;4966770;28;20065;-38
2021/09/01 07:40:25;;;;;;;30.92;19.65;;;14.70;99.90;;;14.64;74.65;98584.81;4969293;28;20070;-38
2021/09/01 07:42:55;;;;;;;27.77;18.95;;;14.70;99.90;;;14.69;74.61;98583.28;4968944;28;20055;-39
2021/09/01 07:45:23;;;;;;;31.05;19.40;;;14.80;99.90;;;14.72;74.56;98591.00;4969156;28;20058;-39
2021/09/01 07:47:54;;;;;;;25.00;17.85;;;14.90;99.90;;;14.76;74.52;98589.66;4968518;28;20076;-38
2021/09/01 07:50:31;;;;;;;26.00;17.73;;;14.90;99.90;;;14.79;74.40;98584.97;4968506;28;20065;-38
2021/09/01 07:53:00;;;;;;;30.23;17.17;;;14.90;99.90;;;14.84;74.58;98586.16;4967606;28;20090;-39
2021/09/01 07:55:28;;;;;;;24.65;16.10;;;15.00;99.90;;;14.91;74.69;98597.06;4966412;28;20064;-39
2021/09/01 07:57:56;;;;;;;25.30;16.98;;;15.00;99.90;;;14.95;74.51;98593.88;4968251;28;20058;-39
2021/09/01 08:00:23;;;;;;;25.52;16.75;;;15.10;99.90;;;15.00;74.59;98603.28;4965836;28;20054;-38
2021/09/01 08:02:54;;;;;;;28.88;16.23;;;15.10;99.90;;;15.03;74.37;98606.47;4966671;28;20065;-39
2021/09/01 08:05:22;;;;;;;22.42;15.52;;;15.20;99.90;;;15.05;74.26;98611.66;4966731;28;20050;-39
2021/09/01 08:07:51;;;;;;;22.58;15.32;;;15.20;99.90;;;15.08;74.47;98614.00;4966013;28;20069;-39
2021/09/01 08:10:19;;;;;;;25.77;16.58;;;15.20;99.90;;;15.10;74.34;98617.34;4966255;28;20061;-39
2021/09/01 08:12:47;;;;;;;23.80;16.75;;;15.20;99.90;;;15.12;74.40;98615.34;4966493;28;20059;-39
2021/09/01 08:15:15;;;;;;;21.92;15.00;;;15.20;99.90;;;15.13;74.30;98612.50;4967065;28;20046;-39
2021/09/01 08:17:43;;;;;;;22.17;14.68;;;15.30;99.90;;;15.18;74.27;98611.16;4967181;28;20050;-39
2021/09/01 08:20:12;;;;;;;19.90;14.25;;;15.20;99.90;;;15.22;74.36;98616.03;4967774;28;20062;-38
2021/09/01 08:22:40;;;;;;;18.40;14.30;;;15.30;99.90;;;15.23;74.16;98615.00;4966583;28;20073;-39
2021/09/01 08:25:10;;;;;;;20.08;13.70;;;15.30;99.90;;;15.30;74.27;98617.88;4968131;28;20058;-39
2021/09/01 08:27:38;;;;;;;20.00;15.30;;;15.40;99.90;;;15.33;74.12;98610.34;4967356;28;20053;-39
2021/09/01 08:30:07;;;;;;;18.30;14.27;;;15.50;99.90;;;15.37;74.27;98616.19;4969379;28;20046;-39
2021/09/01 08:32:35;;;;;;;20.98;14.57;;;15.50;99.90;;;15.42;74.12;98613.00;4972785;28;20051;-39
2021/09/01 08:35:04;;;;;;;19.70;14.13;;;15.50;99.90;;;15.45;74.03;98615.34;4983978;28;20073;-39
2021/09/01 08:37:32;;;;;;;19.83;14.23;;;15.60;99.90;;;15.46;74.26;98625.09;5002812;28;20053;-39
2021/09/01 08:40:01;;;;;;;19.48;13.20;;;15.60;99.90;;;15.52;74.03;98619.03;4984085;28;20084;-39
2021/09/01 08:42:30;;;;;;;14.75;11.32;;;15.70;99.90;;;15.56;74.03;98621.19;4980144;28;20256;-39
2021/09/01 08:44:58;;;;;;;16.10;11.98;;;15.70;99.80;;;15.61;73.92;98622.56;4980411;28;20062;-39
2021/09/01 08:47:27;;;;;;;21.08;12.38;;;15.80;99.60;;;15.64;73.83;98622.22;4978002;28;20249;-39
2021/09/01 08:49:55;;;;;;;16.95;12.75;;;15.80;99.60;;;15.69;73.95;98617.19;4982306;28;20252;-39
2021/09/01 08:52:23;;;;;;;16.45;12.45;;;15.90;99.90;;;15.73;74.03;98627.44;4981285;28;20050;-39
2021/09/01 08:54:53;;;;;;;16.55;13.13;;;15.90;99.90;;;15.80;74.01;98630.28;4981215;28;20057;-39
2021/09/01 08:57:20;;;;;;;15.38;11.13;;;16.00;99.80;;;15.86;74.11;98626.09;4979672;28;20256;-39
2021/09/01 08:59:48;;;;;;;17.17;13.20;;;16.10;99.80;;;15.91;73.88;98624.53;4979895;28;20283;-39
2021/09/01 09:02:27;;;;;;;17.73;12.75;;;16.10;99.60;;;15.98;73.87;98634.63;4972724;28;20069;-39
2021/09/01 09:04:57;;;;;;;12.32;9.88;;;16.20;99.30;;;16.02;73.63;98625.19;4972081;28;20758;-39
2021/09/01 09:07:26;;;;;;;15.25;10.50;;;16.20;99.10;;;16.09;73.44;98621.66;4967375;28;20055;-39
2021/09/01 09:09:54;;;;;;;12.38;9.73;;;16.20;98.90;;;16.13;73.44;98620.28;4966796;28;20353;-39
2021/09/01 09:12:32;;;;;;;11.32;8.68;;;16.30;98.60;;;16.19;73.28;98623.28;4966682;28;20058;-39
2021/09/01 09:14:59;;;;;;;10.93;9.00;;;16.40;97.80;;;16.25;72.81;98610.00;4967992;28;20046;-39
2021/09/01 09:17:35;;;;;;;13.20;9.20;;;16.40;97.70;;;16.28;72.43;98609.63;4967308;28;20084;-39
2021/09/01 09:20:08;;;;;;;14.02;9.80;;;16.50;97.00;;;16.32;72.56;98615.50;4967709;28;20062;-39
2021/09/01 09:22:40;;;;;;;13.13;9.77;;;16.50;97.20;;;16.36;72.46;98611.47;4966873;28;20390;-39
2021/09/01 09:25:13;;;;;;;11.63;9.48;;;16.60;97.00;;;16.41;71.97;98609.09;4966414;28;20063;-39
2021/09/01 09:27:58;;;;;;;11.50;8.82;;;16.60;96.70;;;16.48;72.20;98615.44;4966850;28;20042;-38
2021/09/01 09:30:40;;;;;;;13.93;10.05;;;16.70;96.30;;;16.53;72.58;98613.06;4966456;28;20061;-38
2021/09/01 09:33:17;;;;;;;12.68;9.82;;;16.70;96.60;;;16.60;72.36;98613.22;4966519;28;20055;-38
2021/09/01 09:35:59;;;;;;;13.15;10.10;;;16.80;96.70;;;16.63;72.05;98614.69;4969283;28;20058;-38
2021/09/01 09:38:43;;;;;;;14.82;9.57;;;16.80;96.40;;;16.67;72.25;98611.50;4967926;28;20079;-38
2021/09/01 09:41:20;;;;;;;13.45;9.25;;;16.90;95.80;;;16.70;71.88;98604.91;4966172;28;20073;-38
2021/09/01 09:43:51;;;;;;;16.83;10.85;;;16.90;95.60;;;16.73;71.70;98612.66;4967057;28;20063;-38
2021/09/01 09:46:19;;;;;;;11.52;8.50;;;16.90;95.80;;;16.77;71.67;98613.97;4966474;28;20058;-38
2021/09/01 09:48:48;;;;;;;11.80;9.23;;;17.00;95.60;;;16.79;71.38;98608.38;4965746;28;20058;-38
2021/09/01 09:51:36;;;;;;;11.40;8.93;;;17.00;95.20;;;16.82;71.55;98606.22;4965411;28;20244;-38
2021/09/01 09:54:23;;;;;;;10.77;9.02;;;17.00;95.00;;;16.87;71.60;98603.00;4966164;28;20261;-38
2021/09/01 09:57:06;;;;;;;12.88;9.25;;;17.10;94.50;;;16.91;71.43;98605.16;4965934;28;20051;-38
2021/09/01 09:59:35;;;;;;;11.52;8.10;;;17.10;96.20;;;16.97;71.09;98608.16;4965565;28;20374;-38
2021/09/01 10:02:03;;;;;;;12.10;8.68;;;17.10;94.80;;;17.00;70.97;98600.56;4965278;28;20058;-38
2021/09/01 10:04:32;;;;;;;11.95;8.57;;;17.20;94.60;;;17.03;70.92;98602.88;4967095;28;20440;-38
2021/09/01 10:07:00;;;;;;;12.65;8.07;;;17.20;94.30;;;17.06;71.00;98605.22;4965858;28;20240;-38
2021/09/01 10:09:27;;;;;;;14.75;9.20;;;17.30;94.40;;;17.11;70.70;98601.97;4964775;28;20047;-38
2021/09/01 10:11:58;;;;;;;14.02;10.27;;;17.30;94.30;;;17.17;70.76;98601.25;4966438;28;20055;-38
2021/09/01 10:14:26;;;;;;;12.88;9.80;;;17.40;94.10;;;17.20;70.39;98597.41;4964174;28;20368;-38
2021/09/01 10:17:14;;;;;;;11.32;8.68;;;17.40;93.50;;;17.21;70.16;98593.66;4965106;28;20416;-38